sensor_id;sensor_type;location;lat;lon;timestamp;temperature;humidity
15203;DHT22;7702;51.046;5.184;2023-08-01T00:00:34;17.50;99.90
15203;DHT22;7702;51.046;5.184;2023-08-01T00:03:00;17.50;99.90
15203;DHT22;7702;51.046;5.184;2023-08-01T00:05:25;17.50;99.90
15203;DHT22;7702;51.046;5.184;2023-08-01T00:07:52;17.40;99.90
15203;DHT22;7702;51.046;5.184;2023-08-01T00:10:18;17.40;99.90
15203;DHT22;7702;51.046;5.184;2023-08-01T00:12:44;17.40;99.90
15203;DHT22;7702;51.046;5.184;2023-08-01T00:15:09;17.30;99.90
15203;DHT22;7702;51.046;5.184;2023-08-01T00:17:36;17.30;99.90
15203;DHT22;7702;51.046;5.184;2023-08-01T00:20:03;17.30;99.90
15203;DHT22;7702;51.046;5.184;2023-08-01T00:22:29;17.20;99.90
15203;DHT22;7702;51.046;5.184;2023-08-01T00:24:55;17.20;99.90
15203;DHT22;7702;51.046;5.184;2023-08-01T00:27:21;17.20;99.90
15203;DHT22;7702;51.046;5.184;2023-08-01T00:29:46;17.10;99.90
15203;DHT22;7702;51.046;5.184;2023-08-01T00:32:12;17.10;99.90
15203;DHT22;7702;51.046;5.184;2023-08-01T00:34:38;17.00;99.90
15203;DHT22;7702;51.046;5.184;2023-08-01T00:37:04;17.00;99.90
15203;DHT22;7702;51.046;5.184;2023-08-01T00:39:30;16.90;99.90
15203;DHT22;7702;51.046;5.184;2023-08-01T00:41:56;16.90;99.90
15203;DHT22;7702;51.046;5.184;2023-08-01T00:44:21;17.00;99.90
15203;DHT22;7702;51.046;5.184;2023-08-01T00:46:47;17.00;99.90
15203;DHT22;7702;51.046;5.184;2023-08-01T00:49:14;16.90;99.90
15203;DHT22;7702;51.046;5.184;2023-08-01T00:51:40;17.00;99.90
15203;DHT22;7702;51.046;5.184;2023-08-01T00:54:06;16.90;99.90
15203;DHT22;7702;51.046;5.184;2023-08-01T00:56:32;16.90;99.90
15203;DHT22;7702;51.046;5.184;2023-08-01T00:58:58;16.90;99.90
15203;DHT22;7702;51.046;5.184;2023-08-01T01:01:24;16.90;99.90
15203;DHT22;7702;51.046;5.184;2023-08-01T01:03:50;16.80;99.90
15203;DHT22;7702;51.046;5.184;2023-08-01T01:06:52;16.80;99.90
15203;DHT22;7702;51.046;5.184;2023-08-01T01:09:21;16.80;99.90
15203;DHT22;7702;51.046;5.184;2023-08-01T01:11:47;16.70;99.90
15203;DHT22;7702;51.046;5.184;2023-08-01T01:14:12;16.70;99.90
15203;DHT22;7702;51.046;5.184;2023-08-01T01:16:38;16.70;99.90
15203;DHT22;7702;51.046;5.184;2023-08-01T01:19:07;16.70;99.90
15203;DHT22;7702;51.046;5.184;2023-08-01T01:21:38;16.60;99.90
15203;DHT22;7702;51.046;5.184;2023-08-01T01:24:05;16.50;99.90
15203;DHT22;7702;51.046;5.184;2023-08-01T01:26:33;16.40;99.90
15203;DHT22;7702;51.046;5.184;2023-08-01T01:29:00;16.40;99.90
15203;DHT22;7702;51.046;5.184;2023-08-01T01:31:26;16.30;99.90
15203;DHT22;7702;51.046;5.184;2023-08-01T01:33:52;16.20;99.90
15203;DHT22;7702;51.046;5.184;2023-08-01T01:36:18;16.30;99.90
15203;DHT22;7702;51.046;5.184;2023-08-01T01:38:44;16.30;99.90
15203;DHT22;7702;51.046;5.184;2023-08-01T01:41:09;16.30;99.90
15203;DHT22;7702;51.046;5.184;2023-08-01T01:43:36;16.30;99.90
15203;DHT22;7702;51.046;5.184;2023-08-01T01:46:03;16.30;99.90
15203;DHT22;7702;51.046;5.184;2023-08-01T01:48:29;16.30;99.90
15203;DHT22;7702;51.046;5.184;2023-08-01T01:50:54;16.30;99.90
15203;DHT22;7702;51.046;5.184;2023-08-01T01:53:20;16.30;99.90
15203;DHT22;7702;51.046;5.184;2023-08-01T01:55:46;16.20;99.90
15203;DHT22;7702;51.046;5.184;2023-08-01T01:58:11;16.20;99.90
15203;DHT22;7702;51.046;5.184;2023-08-01T02:00:37;16.30;99.90
15203;DHT22;7702;51.046;5.184;2023-08-01T02:03:03;16.30;99.90
15203;DHT22;7702;51.046;5.184;2023-08-01T02:05:29;16.30;99.90
15203;DHT22;7702;51.046;5.184;2023-08-01T02:07:55;16.20;99.90
15203;DHT22;7702;51.046;5.184;2023-08-01T02:10:21;16.20;99.90
15203;DHT22;7702;51.046;5.184;2023-08-01T02:12:46;16.20;99.90
15203;DHT22;7702;51.046;5.184;2023-08-01T02:15:12;16.10;99.90
15203;DHT22;7702;51.046;5.184;2023-08-01T02:17:38;16.10;99.90
15203;DHT22;7702;51.046;5.184;2023-08-01T02:20:04;16.00;99.90
15203;DHT22;7702;51.046;5.184;2023-08-01T02:22:30;16.00;99.90
15203;DHT22;7702;51.046;5.184;2023-08-01T02:24:56;15.90;99.90
15203;DHT22;7702;51.046;5.184;2023-08-01T02:27:21;15.90;99.90
15203;DHT22;7702;51.046;5.184;2023-08-01T02:29:47;15.90;99.90
15203;DHT22;7702;51.046;5.184;2023-08-01T02:32:15;15.90;99.90
15203;DHT22;7702;51.046;5.184;2023-08-01T02:34:40;15.90;99.90
15203;DHT22;7702;51.046;5.184;2023-08-01T02:37:06;15.90;99.90
15203;DHT22;7702;51.046;5.184;2023-08-01T02:39:32;15.90;99.90
15203;DHT22;7702;51.046;5.184;2023-08-01T02:41:57;15.80;99.90
15203;DHT22;7702;51.046;5.184;2023-08-01T02:44:23;15.80;99.90
15203;DHT22;7702;51.046;5.184;2023-08-01T02:46:49;15.80;99.90
15203;DHT22;7702;51.046;5.184;2023-08-01T02:49:14;15.70;99.90
15203;DHT22;7702;51.046;5.184;2023-08-01T02:51:40;15.80;99.90
15203;DHT22;7702;51.046;5.184;2023-08-01T02:54:06;15.70;99.90
15203;DHT22;7702;51.046;5.184;2023-08-01T02:56:32;15.80;99.90
15203;DHT22;7702;51.046;5.184;2023-08-01T02:58:58;15.80;99.90
15203;DHT22;7702;51.046;5.184;2023-08-01T03:01:23;15.80;99.90
15203;DHT22;7702;51.046;5.184;2023-08-01T03:03:49;15.90;99.90
15203;DHT22;7702;51.046;5.184;2023-08-01T03:06:15;15.80;99.90
15203;DHT22;7702;51.046;5.184;2023-08-01T03:08:41;15.80;99.90
15203;DHT22;7702;51.046;5.184;2023-08-01T03:11:06;15.80;99.90
15203;DHT22;7702;51.046;5.184;2023-08-01T03:13:32;15.80;99.90
15203;DHT22;7702;51.046;5.184;2023-08-01T03:15:58;15.80;99.90
15203;DHT22;7702;51.046;5.184;2023-08-01T03:18:23;15.80;99.90
15203;DHT22;7702;51.046;5.184;2023-08-01T03:20:50;15.90;99.90
15203;DHT22;7702;51.046;5.184;2023-08-01T03:23:16;15.90;99.90
15203;DHT22;7702;51.046;5.184;2023-08-01T03:25:41;15.90;99.90
15203;DHT22;7702;51.046;5.184;2023-08-01T03:28:07;15.80;99.90
15203;DHT22;7702;51.046;5.184;2023-08-01T03:30:35;15.80;99.90
15203;DHT22;7702;51.046;5.184;2023-08-01T03:33:01;15.80;99.90
15203;DHT22;7702;51.046;5.184;2023-08-01T03:35:28;15.80;99.90
15203;DHT22;7702;51.046;5.184;2023-08-01T03:37:54;15.80;99.90
15203;DHT22;7702;51.046;5.184;2023-08-01T03:40:19;15.80;99.90
15203;DHT22;7702;51.046;5.184;2023-08-01T03:42:45;15.80;99.90
15203;DHT22;7702;51.046;5.184;2023-08-01T03:45:11;15.80;99.90
15203;DHT22;7702;51.046;5.184;2023-08-01T03:47:37;15.70;99.90
15203;DHT22;7702;51.046;5.184;2023-08-01T03:50:03;15.70;99.90
15203;DHT22;7702;51.046;5.184;2023-08-01T03:52:28;15.70;99.90
15203;DHT22;7702;51.046;5.184;2023-08-01T03:54:55;15.70;99.90
15203;DHT22;7702;51.046;5.184;2023-08-01T03:57:21;15.60;99.90
15203;DHT22;7702;51.046;5.184;2023-08-01T03:59:47;15.60;99.90
15203;DHT22;7702;51.046;5.184;2023-08-01T04:02:12;15.60;99.90
15203;DHT22;7702;51.046;5.184;2023-08-01T04:04:38;15.60;99.90
15203;DHT22;7702;51.046;5.184;2023-08-01T04:07:04;15.70;99.90
15203;DHT22;7702;51.046;5.184;2023-08-01T04:09:30;15.70;99.90
15203;DHT22;7702;51.046;5.184;2023-08-01T04:11:55;15.70;99.90
15203;DHT22;7702;51.046;5.184;2023-08-01T04:14:21;15.70;99.90
15203;DHT22;7702;51.046;5.184;2023-08-01T04:16:47;15.70;99.90
15203;DHT22;7702;51.046;5.184;2023-08-01T04:19:12;15.70;99.90
15203;DHT22;7702;51.046;5.184;2023-08-01T04:21:38;15.60;99.90
15203;DHT22;7702;51.046;5.184;2023-08-01T04:24:04;15.60;99.90
15203;DHT22;7702;51.046;5.184;2023-08-01T04:26:30;15.60;99.90
15203;DHT22;7702;51.046;5.184;2023-08-01T04:28:55;15.50;99.90
15203;DHT22;7702;51.046;5.184;2023-08-01T04:31:21;15.60;99.90
15203;DHT22;7702;51.046;5.184;2023-08-01T04:33:47;15.60;99.90
15203;DHT22;7702;51.046;5.184;2023-08-01T04:36:13;15.60;99.90
15203;DHT22;7702;51.046;5.184;2023-08-01T04:38:38;15.70;99.90
15203;DHT22;7702;51.046;5.184;2023-08-01T04:41:04;15.70;99.90
15203;DHT22;7702;51.046;5.184;2023-08-01T04:43:30;15.80;99.90
15203;DHT22;7702;51.046;5.184;2023-08-01T04:45:55;15.80;99.90
15203;DHT22;7702;51.046;5.184;2023-08-01T04:48:21;15.70;99.90
15203;DHT22;7702;51.046;5.184;2023-08-01T04:50:46;15.80;99.90
15203;DHT22;7702;51.046;5.184;2023-08-01T04:53:12;15.80;99.90
15203;DHT22;7702;51.046;5.184;2023-08-01T04:55:40;15.70;99.90
15203;DHT22;7702;51.046;5.184;2023-08-01T04:58:05;15.70;99.90
15203;DHT22;7702;51.046;5.184;2023-08-01T05:00:31;15.70;99.90
15203;DHT22;7702;51.046;5.184;2023-08-01T05:02:57;15.60;99.90
15203;DHT22;7702;51.046;5.184;2023-08-01T05:05:22;15.70;99.90
15203;DHT22;7702;51.046;5.184;2023-08-01T05:07:48;15.70;99.90
15203;DHT22;7702;51.046;5.184;2023-08-01T05:10:13;15.80;99.90
15203;DHT22;7702;51.046;5.184;2023-08-01T05:12:39;15.80;99.90
15203;DHT22;7702;51.046;5.184;2023-08-01T05:15:05;15.80;99.90
15203;DHT22;7702;51.046;5.184;2023-08-01T05:17:31;15.90;99.90
15203;DHT22;7702;51.046;5.184;2023-08-01T05:19:57;15.90;99.90
15203;DHT22;7702;51.046;5.184;2023-08-01T05:22:22;15.90;99.90
15203;DHT22;7702;51.046;5.184;2023-08-01T05:24:48;15.90;99.90
15203;DHT22;7702;51.046;5.184;2023-08-01T05:27:14;15.90;99.90
15203;DHT22;7702;51.046;5.184;2023-08-01T05:29:39;15.90;99.90
15203;DHT22;7702;51.046;5.184;2023-08-01T05:32:05;16.00;99.90
15203;DHT22;7702;51.046;5.184;2023-08-01T05:34:31;16.00;99.90
15203;DHT22;7702;51.046;5.184;2023-08-01T05:36:57;16.00;99.90
15203;DHT22;7702;51.046;5.184;2023-08-01T05:39:23;16.00;99.90
15203;DHT22;7702;51.046;5.184;2023-08-01T05:41:49;16.10;99.90
15203;DHT22;7702;51.046;5.184;2023-08-01T05:44:15;16.20;99.90
15203;DHT22;7702;51.046;5.184;2023-08-01T05:46:41;16.20;99.90
15203;DHT22;7702;51.046;5.184;2023-08-01T05:49:07;16.40;99.90
15203;DHT22;7702;51.046;5.184;2023-08-01T05:51:33;16.50;99.90
15203;DHT22;7702;51.046;5.184;2023-08-01T05:53:58;16.50;99.90
15203;DHT22;7702;51.046;5.184;2023-08-01T05:56:24;16.60;99.90
15203;DHT22;7702;51.046;5.184;2023-08-01T05:58:49;16.60;99.90
15203;DHT22;7702;51.046;5.184;2023-08-01T06:01:16;16.60;99.90
15203;DHT22;7702;51.046;5.184;2023-08-01T06:03:42;16.60;99.90
15203;DHT22;7702;51.046;5.184;2023-08-01T06:06:08;16.50;99.90
15203;DHT22;7702;51.046;5.184;2023-08-01T06:08:34;16.70;99.90
15203;DHT22;7702;51.046;5.184;2023-08-01T06:10:59;16.70;99.90
15203;DHT22;7702;51.046;5.184;2023-08-01T06:13:25;16.60;99.90
15203;DHT22;7702;51.046;5.184;2023-08-01T06:15:51;16.70;99.90
15203;DHT22;7702;51.046;5.184;2023-08-01T06:18:17;16.80;99.90
15203;DHT22;7702;51.046;5.184;2023-08-01T06:20:43;17.10;99.90
15203;DHT22;7702;51.046;5.184;2023-08-01T06:23:08;17.10;99.90
15203;DHT22;7702;51.046;5.184;2023-08-01T06:25:34;17.20;99.90
15203;DHT22;7702;51.046;5.184;2023-08-01T06:28:00;17.20;99.90
15203;DHT22;7702;51.046;5.184;2023-08-01T06:30:26;17.10;99.90
15203;DHT22;7702;51.046;5.184;2023-08-01T06:32:51;17.00;99.90
15203;DHT22;7702;51.046;5.184;2023-08-01T06:35:17;17.10;99.90
15203;DHT22;7702;51.046;5.184;2023-08-01T06:37:43;17.00;99.90
15203;DHT22;7702;51.046;5.184;2023-08-01T06:40:09;17.00;99.90
15203;DHT22;7702;51.046;5.184;2023-08-01T06:42:35;17.20;99.90
15203;DHT22;7702;51.046;5.184;2023-08-01T06:45:00;17.20;99.90
15203;DHT22;7702;51.046;5.184;2023-08-01T06:47:26;17.30;99.90
15203;DHT22;7702;51.046;5.184;2023-08-01T06:49:52;17.10;99.90
15203;DHT22;7702;51.046;5.184;2023-08-01T06:52:17;17.10;99.90
15203;DHT22;7702;51.046;5.184;2023-08-01T06:54:43;17.10;99.90
15203;DHT22;7702;51.046;5.184;2023-08-01T06:57:09;17.30;99.90
15203;DHT22;7702;51.046;5.184;2023-08-01T06:59:35;17.30;99.90
15203;DHT22;7702;51.046;5.184;2023-08-01T07:02:01;17.30;99.90
15203;DHT22;7702;51.046;5.184;2023-08-01T07:04:26;17.20;99.90
15203;DHT22;7702;51.046;5.184;2023-08-01T07:06:52;17.30;99.90
15203;DHT22;7702;51.046;5.184;2023-08-01T07:09:18;17.50;99.90
15203;DHT22;7702;51.046;5.184;2023-08-01T07:11:44;17.60;99.90
15203;DHT22;7702;51.046;5.184;2023-08-01T07:14:09;17.60;99.90
15203;DHT22;7702;51.046;5.184;2023-08-01T07:16:35;17.80;99.90
15203;DHT22;7702;51.046;5.184;2023-08-01T07:19:01;17.80;99.90
15203;DHT22;7702;51.046;5.184;2023-08-01T07:21:27;18.00;99.90
15203;DHT22;7702;51.046;5.184;2023-08-01T07:23:54;18.20;99.90
15203;DHT22;7702;51.046;5.184;2023-08-01T07:26:20;18.10;99.90
15203;DHT22;7702;51.046;5.184;2023-08-01T07:28:45;18.20;99.90
15203;DHT22;7702;51.046;5.184;2023-08-01T07:31:11;18.30;99.90
15203;DHT22;7702;51.046;5.184;2023-08-01T07:33:37;18.30;99.90
15203;DHT22;7702;51.046;5.184;2023-08-01T07:36:04;18.60;99.90
15203;DHT22;7702;51.046;5.184;2023-08-01T07:38:30;18.80;99.90
15203;DHT22;7702;51.046;5.184;2023-08-01T07:41:02;19.10;99.90
15203;DHT22;7702;51.046;5.184;2023-08-01T07:43:29;19.20;99.90
15203;DHT22;7702;51.046;5.184;2023-08-01T07:45:57;19.40;99.90
15203;DHT22;7702;51.046;5.184;2023-08-01T07:48:23;19.50;99.90
15203;DHT22;7702;51.046;5.184;2023-08-01T07:50:49;19.40;99.90
15203;DHT22;7702;51.046;5.184;2023-08-01T07:53:14;19.40;99.90
15203;DHT22;7702;51.046;5.184;2023-08-01T07:55:40;19.30;99.90
15203;DHT22;7702;51.046;5.184;2023-08-01T07:58:06;19.20;99.90
15203;DHT22;7702;51.046;5.184;2023-08-01T08:00:34;19.40;99.90
15203;DHT22;7702;51.046;5.184;2023-08-01T08:03:00;19.40;99.90
15203;DHT22;7702;51.046;5.184;2023-08-01T08:05:26;19.10;99.90
15203;DHT22;7702;51.046;5.184;2023-08-01T08:07:51;18.90;99.90
15203;DHT22;7702;51.046;5.184;2023-08-01T08:10:17;18.80;99.90
15203;DHT22;7702;51.046;5.184;2023-08-01T08:12:43;18.80;99.90
15203;DHT22;7702;51.046;5.184;2023-08-01T08:15:08;18.90;99.90
15203;DHT22;7702;51.046;5.184;2023-08-01T08:17:35;19.40;99.90
15203;DHT22;7702;51.046;5.184;2023-08-01T08:20:00;19.60;99.90
15203;DHT22;7702;51.046;5.184;2023-08-01T08:22:26;19.40;99.90
15203;DHT22;7702;51.046;5.184;2023-08-01T08:24:53;19.50;99.90
15203;DHT22;7702;51.046;5.184;2023-08-01T08:27:19;19.70;99.90
15203;DHT22;7702;51.046;5.184;2023-08-01T08:29:44;20.00;99.90
15203;DHT22;7702;51.046;5.184;2023-08-01T08:32:10;20.20;99.90
15203;DHT22;7702;51.046;5.184;2023-08-01T08:34:35;20.10;99.90
15203;DHT22;7702;51.046;5.184;2023-08-01T08:37:01;20.30;99.90
15203;DHT22;7702;51.046;5.184;2023-08-01T08:39:27;20.40;99.90
15203;DHT22;7702;51.046;5.184;2023-08-01T08:41:53;20.20;99.90
15203;DHT22;7702;51.046;5.184;2023-08-01T08:44:20;20.30;99.90
15203;DHT22;7702;51.046;5.184;2023-08-01T08:46:52;20.50;99.90
15203;DHT22;7702;51.046;5.184;2023-08-01T08:49:19;20.50;99.90
15203;DHT22;7702;51.046;5.184;2023-08-01T08:51:47;20.80;99.90
15203;DHT22;7702;51.046;5.184;2023-08-01T08:54:14;20.50;99.90
15203;DHT22;7702;51.046;5.184;2023-08-01T08:56:41;20.30;99.90
15203;DHT22;7702;51.046;5.184;2023-08-01T08:59:08;20.60;99.90
15203;DHT22;7702;51.046;5.184;2023-08-01T09:01:36;20.80;99.90
15203;DHT22;7702;51.046;5.184;2023-08-01T09:04:02;20.40;99.90
15203;DHT22;7702;51.046;5.184;2023-08-01T09:06:44;20.50;99.90
15203;DHT22;7702;51.046;5.184;2023-08-01T09:09:15;20.30;99.90
15203;DHT22;7702;51.046;5.184;2023-08-01T09:11:51;20.40;99.90
15203;DHT22;7702;51.046;5.184;2023-08-01T09:14:18;20.30;99.90
15203;DHT22;7702;51.046;5.184;2023-08-01T09:16:45;20.50;99.90
15203;DHT22;7702;51.046;5.184;2023-08-01T09:19:18;20.60;99.90
15203;DHT22;7702;51.046;5.184;2023-08-01T09:21:44;20.50;99.90
15203;DHT22;7702;51.046;5.184;2023-08-01T09:24:20;20.40;99.90
15203;DHT22;7702;51.046;5.184;2023-08-01T09:26:47;20.30;99.90
15203;DHT22;7702;51.046;5.184;2023-08-01T09:29:16;20.20;99.90
15203;DHT22;7702;51.046;5.184;2023-08-01T09:31:43;20.10;99.90
15203;DHT22;7702;51.046;5.184;2023-08-01T09:34:22;20.30;99.90
15203;DHT22;7702;51.046;5.184;2023-08-01T09:36:50;20.80;99.90
15203;DHT22;7702;51.046;5.184;2023-08-01T09:39:17;21.00;99.90
15203;DHT22;7702;51.046;5.184;2023-08-01T09:41:43;21.00;99.90
15203;DHT22;7702;51.046;5.184;2023-08-01T09:44:15;21.10;99.90
15203;DHT22;7702;51.046;5.184;2023-08-01T09:46:41;21.50;99.90
15203;DHT22;7702;51.046;5.184;2023-08-01T09:49:11;21.60;99.90
15203;DHT22;7702;51.046;5.184;2023-08-01T09:51:50;21.70;99.90
15203;DHT22;7702;51.046;5.184;2023-08-01T09:54:17;21.60;99.90
15203;DHT22;7702;51.046;5.184;2023-08-01T09:56:47;21.80;99.90
15203;DHT22;7702;51.046;5.184;2023-08-01T09:59:20;22.10;99.90
15203;DHT22;7702;51.046;5.184;2023-08-01T10:01:51;22.40;99.90
15203;DHT22;7702;51.046;5.184;2023-08-01T10:04:26;22.20;99.90
15203;DHT22;7702;51.046;5.184;2023-08-01T10:07:00;21.90;99.90
15203;DHT22;7702;51.046;5.184;2023-08-01T10:09:30;21.90;99.90
15203;DHT22;7702;51.046;5.184;2023-08-01T10:11:57;22.20;99.90
15203;DHT22;7702;51.046;5.184;2023-08-01T10:14:23;22.40;99.90
15203;DHT22;7702;51.046;5.184;2023-08-01T10:16:51;22.40;99.90
15203;DHT22;7702;51.046;5.184;2023-08-01T10:19:17;22.20;99.90
15203;DHT22;7702;51.046;5.184;2023-08-01T10:21:44;21.80;99.90
15203;DHT22;7702;51.046;5.184;2023-08-01T10:24:11;22.10;99.90
15203;DHT22;7702;51.046;5.184;2023-08-01T10:26:38;22.30;99.90
15203;DHT22;7702;51.046;5.184;2023-08-01T10:29:03;22.20;99.90
15203;DHT22;7702;51.046;5.184;2023-08-01T10:31:29;22.30;99.90
15203;DHT22;7702;51.046;5.184;2023-08-01T10:34:05;22.40;99.90
15203;DHT22;7702;51.046;5.184;2023-08-01T10:36:31;22.30;99.90
15203;DHT22;7702;51.046;5.184;2023-08-01T10:38:59;22.40;99.90
15203;DHT22;7702;51.046;5.184;2023-08-01T10:44:11;23.20;99.90
15203;DHT22;7702;51.046;5.184;2023-08-01T10:49:16;23.10;99.90
15203;DHT22;7702;51.046;5.184;2023-08-01T10:51:42;22.80;99.90
15203;DHT22;7702;51.046;5.184;2023-08-01T10:54:22;22.90;99.90
15203;DHT22;7702;51.046;5.184;2023-08-01T10:56:52;23.10;99.90
15203;DHT22;7702;51.046;5.184;2023-08-01T10:59:19;22.80;99.90
15203;DHT22;7702;51.046;5.184;2023-08-01T11:01:49;22.30;99.90
15203;DHT22;7702;51.046;5.184;2023-08-01T11:04:20;22.00;99.90
15203;DHT22;7702;51.046;5.184;2023-08-01T11:06:51;22.20;99.90
15203;DHT22;7702;51.046;5.184;2023-08-01T11:09:21;22.60;99.90
15203;DHT22;7702;51.046;5.184;2023-08-01T11:11:50;22.30;99.90
15203;DHT22;7702;51.046;5.184;2023-08-01T11:14:16;22.60;99.90
15203;DHT22;7702;51.046;5.184;2023-08-01T11:16:44;22.60;99.90
15203;DHT22;7702;51.046;5.184;2023-08-01T11:19:20;22.60;99.90
15203;DHT22;7702;51.046;5.184;2023-08-01T11:21:46;22.60;99.90
15203;DHT22;7702;51.046;5.184;2023-08-01T11:24:12;22.40;99.90
15203;DHT22;7702;51.046;5.184;2023-08-01T11:26:43;22.60;99.90
15203;DHT22;7702;51.046;5.184;2023-08-01T11:29:12;22.50;99.90
15203;DHT22;7702;51.046;5.184;2023-08-01T11:31:38;22.40;99.90
15203;DHT22;7702;51.046;5.184;2023-08-01T11:34:04;22.70;99.90
15203;DHT22;7702;51.046;5.184;2023-08-01T11:36:31;22.80;99.90
15203;DHT22;7702;51.046;5.184;2023-08-01T11:39:00;22.70;99.90
15203;DHT22;7702;51.046;5.184;2023-08-01T11:41:26;22.90;99.90
15203;DHT22;7702;51.046;5.184;2023-08-01T11:43:53;23.40;99.90
15203;DHT22;7702;51.046;5.184;2023-08-01T11:46:22;23.50;99.90
15203;DHT22;7702;51.046;5.184;2023-08-01T11:48:48;23.10;99.90
15203;DHT22;7702;51.046;5.184;2023-08-01T11:51:17;23.20;99.90
15203;DHT22;7702;51.046;5.184;2023-08-01T11:53:43;22.50;99.90
15203;DHT22;7702;51.046;5.184;2023-08-01T11:56:19;22.00;99.90
15203;DHT22;7702;51.046;5.184;2023-08-01T11:58:44;22.00;99.90
15203;DHT22;7702;51.046;5.184;2023-08-01T12:01:14;22.30;99.90
15203;DHT22;7702;51.046;5.184;2023-08-01T12:03:49;22.70;99.90
15203;DHT22;7702;51.046;5.184;2023-08-01T12:06:16;22.90;99.90
15203;DHT22;7702;51.046;5.184;2023-08-01T12:08:43;23.10;99.90
15203;DHT22;7702;51.046;5.184;2023-08-01T12:13:44;22.90;99.90
15203;DHT22;7702;51.046;5.184;2023-08-01T12:16:10;22.50;99.90
15203;DHT22;7702;51.046;5.184;2023-08-01T12:18:38;22.30;99.90
15203;DHT22;7702;51.046;5.184;2023-08-01T12:21:04;22.10;99.90
15203;DHT22;7702;51.046;5.184;2023-08-01T12:23:31;21.90;99.90
15203;DHT22;7702;51.046;5.184;2023-08-01T12:25:57;21.90;99.90
15203;DHT22;7702;51.046;5.184;2023-08-01T12:28:22;21.90;99.90
15203;DHT22;7702;51.046;5.184;2023-08-01T12:30:48;22.30;99.90
15203;DHT22;7702;51.046;5.184;2023-08-01T12:33:14;22.60;99.90
15203;DHT22;7702;51.046;5.184;2023-08-01T12:35:41;23.50;99.90
15203;DHT22;7702;51.046;5.184;2023-08-01T12:38:08;24.00;99.90
15203;DHT22;7702;51.046;5.184;2023-08-01T12:40:33;24.00;99.90
15203;DHT22;7702;51.046;5.184;2023-08-01T12:42:59;23.60;99.90
15203;DHT22;7702;51.046;5.184;2023-08-01T12:45:25;23.30;99.90
15203;DHT22;7702;51.046;5.184;2023-08-01T12:47:51;23.50;99.90
15203;DHT22;7702;51.046;5.184;2023-08-01T12:50:16;24.20;99.90
15203;DHT22;7702;51.046;5.184;2023-08-01T12:52:42;24.30;99.90
15203;DHT22;7702;51.046;5.184;2023-08-01T12:55:08;23.40;99.90
15203;DHT22;7702;51.046;5.184;2023-08-01T12:57:34;23.10;99.90
15203;DHT22;7702;51.046;5.184;2023-08-01T13:00:00;22.70;99.90
15203;DHT22;7702;51.046;5.184;2023-08-01T13:02:29;22.90;99.90
15203;DHT22;7702;51.046;5.184;2023-08-01T13:04:54;23.30;99.90
15203;DHT22;7702;51.046;5.184;2023-08-01T13:07:20;23.40;99.90
15203;DHT22;7702;51.046;5.184;2023-08-01T13:09:46;23.50;99.90
15203;DHT22;7702;51.046;5.184;2023-08-01T13:12:12;24.00;99.90
15203;DHT22;7702;51.046;5.184;2023-08-01T13:14:37;24.50;99.90
15203;DHT22;7702;51.046;5.184;2023-08-01T13:17:03;24.40;99.90
15203;DHT22;7702;51.046;5.184;2023-08-01T13:19:29;23.80;99.90
15203;DHT22;7702;51.046;5.184;2023-08-01T13:21:55;23.40;99.90
15203;DHT22;7702;51.046;5.184;2023-08-01T13:24:21;22.60;99.90
15203;DHT22;7702;51.046;5.184;2023-08-01T13:26:46;22.80;99.90
15203;DHT22;7702;51.046;5.184;2023-08-01T13:29:12;22.10;99.90
15203;DHT22;7702;51.046;5.184;2023-08-01T13:31:37;22.00;99.90
15203;DHT22;7702;51.046;5.184;2023-08-01T13:34:03;21.70;99.90
15203;DHT22;7702;51.046;5.184;2023-08-01T13:36:29;21.50;99.90
15203;DHT22;7702;51.046;5.184;2023-08-01T13:38:55;21.50;99.90
15203;DHT22;7702;51.046;5.184;2023-08-01T13:41:21;21.50;99.90
15203;DHT22;7702;51.046;5.184;2023-08-01T13:43:46;22.10;99.90
15203;DHT22;7702;51.046;5.184;2023-08-01T13:46:14;22.90;99.90
15203;DHT22;7702;51.046;5.184;2023-08-01T13:48:41;23.50;99.90
15203;DHT22;7702;51.046;5.184;2023-08-01T13:51:07;23.80;99.90
15203;DHT22;7702;51.046;5.184;2023-08-01T13:53:32;23.80;99.90
15203;DHT22;7702;51.046;5.184;2023-08-01T13:56:00;23.60;99.90
15203;DHT22;7702;51.046;5.184;2023-08-01T13:58:26;23.80;99.90
15203;DHT22;7702;51.046;5.184;2023-08-01T14:00:51;24.00;99.90
15203;DHT22;7702;51.046;5.184;2023-08-01T14:03:17;24.30;99.90
15203;DHT22;7702;51.046;5.184;2023-08-01T14:05:42;24.40;99.90
15203;DHT22;7702;51.046;5.184;2023-08-01T14:08:08;24.30;99.90
15203;DHT22;7702;51.046;5.184;2023-08-01T14:10:34;23.10;99.90
15203;DHT22;7702;51.046;5.184;2023-08-01T14:12:59;23.00;99.90
15203;DHT22;7702;51.046;5.184;2023-08-01T14:15:25;22.80;99.90
15203;DHT22;7702;51.046;5.184;2023-08-01T14:17:51;22.60;99.90
15203;DHT22;7702;51.046;5.184;2023-08-01T14:20:18;22.50;99.90
15203;DHT22;7702;51.046;5.184;2023-08-01T14:22:44;22.70;99.90
15203;DHT22;7702;51.046;5.184;2023-08-01T14:25:10;22.90;99.90
15203;DHT22;7702;51.046;5.184;2023-08-01T14:27:36;22.50;99.90
15203;DHT22;7702;51.046;5.184;2023-08-01T14:30:02;22.40;99.90
15203;DHT22;7702;51.046;5.184;2023-08-01T14:32:28;22.40;99.90
15203;DHT22;7702;51.046;5.184;2023-08-01T14:34:54;22.10;99.90
15203;DHT22;7702;51.046;5.184;2023-08-01T14:37:20;21.90;99.90
15203;DHT22;7702;51.046;5.184;2023-08-01T14:39:49;21.80;99.90
15203;DHT22;7702;51.046;5.184;2023-08-01T14:42:16;21.90;99.90
15203;DHT22;7702;51.046;5.184;2023-08-01T14:44:41;21.50;99.90
15203;DHT22;7702;51.046;5.184;2023-08-01T14:47:07;21.20;99.90
15203;DHT22;7702;51.046;5.184;2023-08-01T14:49:33;21.20;99.90
15203;DHT22;7702;51.046;5.184;2023-08-01T14:51:58;21.30;99.90
15203;DHT22;7702;51.046;5.184;2023-08-01T14:54:24;21.30;99.90
15203;DHT22;7702;51.046;5.184;2023-08-01T14:56:52;21.50;99.90
15203;DHT22;7702;51.046;5.184;2023-08-01T14:59:17;21.80;99.90
15203;DHT22;7702;51.046;5.184;2023-08-01T15:01:43;22.60;99.90
15203;DHT22;7702;51.046;5.184;2023-08-01T15:04:09;23.70;99.90
15203;DHT22;7702;51.046;5.184;2023-08-01T15:06:34;23.90;99.90
15203;DHT22;7702;51.046;5.184;2023-08-01T15:09:00;23.70;99.90
15203;DHT22;7702;51.046;5.184;2023-08-01T15:11:26;22.90;99.90
15203;DHT22;7702;51.046;5.184;2023-08-01T15:13:51;22.30;99.90
15203;DHT22;7702;51.046;5.184;2023-08-01T15:16:17;21.80;99.90
15203;DHT22;7702;51.046;5.184;2023-08-01T15:18:43;21.40;99.90
15203;DHT22;7702;51.046;5.184;2023-08-01T15:21:08;21.10;99.90
15203;DHT22;7702;51.046;5.184;2023-08-01T15:23:34;21.10;99.90
15203;DHT22;7702;51.046;5.184;2023-08-01T15:26:00;20.80;99.90
15203;DHT22;7702;51.046;5.184;2023-08-01T15:28:26;20.20;99.90
15203;DHT22;7702;51.046;5.184;2023-08-01T15:33:34;19.50;99.90
15203;DHT22;7702;51.046;5.184;2023-08-01T15:36:06;19.40;99.90
15203;DHT22;7702;51.046;5.184;2023-08-01T15:38:33;19.40;99.90
15203;DHT22;7702;51.046;5.184;2023-08-01T15:41:00;19.50;99.90
15203;DHT22;7702;51.046;5.184;2023-08-01T15:43:37;19.70;99.90
15203;DHT22;7702;51.046;5.184;2023-08-01T15:46:03;19.70;99.90
15203;DHT22;7702;51.046;5.184;2023-08-01T15:48:33;19.80;99.90
15203;DHT22;7702;51.046;5.184;2023-08-01T15:50:58;19.80;99.90